sensor_id;sensor_type;location;lat;lon;timestamp;pressure;altitude;pressure_sealevel;temperature;humidity
22257;BME280;11297;42.686;23.374;2023-03-15T00:00:09;94021.88;;;10.12;35.11
22257;BME280;11297;42.686;23.374;2023-03-15T00:02:36;94022.19;;;10.22;35.01
22257;BME280;11297;42.686;23.374;2023-03-15T00:05:02;94003.84;;;10.27;35.48
22257;BME280;11297;42.686;23.374;2023-03-15T00:07:27;94009.72;;;10.36;35.11
22257;BME280;11297;42.686;23.374;2023-03-15T00:09:53;94004.41;;;10.45;34.82
22257;BME280;11297;42.686;23.374;2023-03-15T00:12:19;94010.16;;;10.50;34.87
22257;BME280;11297;42.686;23.374;2023-03-15T00:14:47;93988.84;;;10.56;34.46
22257;BME280;11297;42.686;23.374;2023-03-15T00:17:13;93996.22;;;10.66;34.66
22257;BME280;11297;42.686;23.374;2023-03-15T00:19:38;93987.22;;;10.64;34.04
22257;BME280;11297;42.686;23.374;2023-03-15T00:22:03;94005.88;;;10.78;34.35
22257;BME280;11297;42.686;23.374;2023-03-15T00:24:29;93997.31;;;10.77;33.89
22257;BME280;11297;42.686;23.374;2023-03-15T00:26:54;93994.72;;;10.77;34.36
22257;BME280;11297;42.686;23.374;2023-03-15T00:29:20;94001.53;;;10.70;33.88
22257;BME280;11297;42.686;23.374;2023-03-15T00:31:45;94005.56;;;10.79;33.66
22257;BME280;11297;42.686;23.374;2023-03-15T00:34:10;93994.06;;;10.68;34.05
22257;BME280;11297;42.686;23.374;2023-03-15T00:36:38;93984.63;;;10.64;34.14
22257;BME280;11297;42.686;23.374;2023-03-15T00:39:07;93973.72;;;10.58;34.09
22257;BME280;11297;42.686;23.374;2023-03-15T00:41:33;93981.84;;;10.69;34.08
22257;BME280;11297;42.686;23.374;2023-03-15T00:43:58;93974.81;;;10.69;34.71
22257;BME280;11297;42.686;23.374;2023-03-15T00:46:24;93986.25;;;10.68;35.86
22257;BME280;11297;42.686;23.374;2023-03-15T00:48:50;93970.25;;;10.54;35.56
22257;BME280;11297;42.686;23.374;2023-03-15T00:51:19;93976.66;;;10.57;35.00
22257;BME280;11297;42.686;23.374;2023-03-15T00:53:46;93981.19;;;10.60;35.63
22257;BME280;11297;42.686;23.374;2023-03-15T00:56:16;93987.22;;;10.64;35.59
22257;BME280;11297;42.686;23.374;2023-03-15T00:58:42;93973.72;;;10.58;34.85
22257;BME280;11297;42.686;23.374;2023-03-15T01:01:10;93967.22;;;10.52;34.94
22257;BME280;11297;42.686;23.374;2023-03-15T01:03:36;93960.28;;;10.45;35.35
22257;BME280;11297;42.686;23.374;2023-03-15T01:06:11;93964.94;;;10.51;35.98
22257;BME280;11297;42.686;23.374;2023-03-15T01:08:37;93955.72;;;10.42;35.56
22257;BME280;11297;42.686;23.374;2023-03-15T01:11:05;93965.69;;;10.51;35.52
22257;BME280;11297;42.686;23.374;2023-03-15T01:13:31;93930.75;;;10.37;35.04
22257;BME280;11297;42.686;23.374;2023-03-15T01:15:57;93957.69;;;10.56;35.64
22257;BME280;11297;42.686;23.374;2023-03-15T01:18:22;93950.69;;;10.57;35.97
22257;BME280;11297;42.686;23.374;2023-03-15T01:20:47;93944.06;;;10.59;35.54
22257;BME280;11297;42.686;23.374;2023-03-15T01:23:13;93927.50;;;10.52;35.67
22257;BME280;11297;42.686;23.374;2023-03-15T01:25:38;93937.69;;;10.57;35.78
22257;BME280;11297;42.686;23.374;2023-03-15T01:28:04;93932.19;;;10.58;35.77
22257;BME280;11297;42.686;23.374;2023-03-15T01:30:29;93932.06;;;10.55;35.86
22257;BME280;11297;42.686;23.374;2023-03-15T01:32:55;93933.47;;;10.52;35.45
22257;BME280;11297;42.686;23.374;2023-03-15T01:35:20;93938.22;;;10.50;35.51
22257;BME280;11297;42.686;23.374;2023-03-15T01:37:48;93931.41;;;10.46;36.08
22257;BME280;11297;42.686;23.374;2023-03-15T01:40:14;93914.75;;;10.35;35.69
22257;BME280;11297;42.686;23.374;2023-03-15T01:43:22;93932.19;;;10.47;35.47
22257;BME280;11297;42.686;23.374;2023-03-15T01:46:02;93930.66;;;10.46;35.55
22257;BME280;11297;42.686;23.374;2023-03-15T01:48:47;93927.41;;;10.37;35.94
22257;BME280;11297;42.686;23.374;2023-03-15T01:54:12;93913.78;;;10.40;36.14
22257;BME280;11297;42.686;23.374;2023-03-15T01:56:43;93903.94;;;10.33;35.74
22257;BME280;11297;42.686;23.374;2023-03-15T01:59:14;93897.66;;;10.34;35.72
22257;BME280;11297;42.686;23.374;2023-03-15T02:01:41;93903.38;;;10.40;35.48
22257;BME280;11297;42.686;23.374;2023-03-15T02:04:12;93900.38;;;10.38;36.02
22257;BME280;11297;42.686;23.374;2023-03-15T02:06:41;93908.25;;;10.41;36.01
22257;BME280;11297;42.686;23.374;2023-03-15T02:09:13;93900.03;;;10.39;35.78
22257;BME280;11297;42.686;23.374;2023-03-15T02:11:40;93897.44;;;10.39;35.66
22257;BME280;11297;42.686;23.374;2023-03-15T02:14:08;93886.94;;;10.36;35.79
22257;BME280;11297;42.686;23.374;2023-03-15T02:16:36;93883.19;;;10.33;36.10
22257;BME280;11297;42.686;23.374;2023-03-15T02:19:04;93884.16;;;10.29;35.86
22257;BME280;11297;42.686;23.374;2023-03-15T02:21:41;93880.78;;;10.28;35.88
22257;BME280;11297;42.686;23.374;2023-03-15T02:24:55;93873.31;;;10.15;35.94
22257;BME280;11297;42.686;23.374;2023-03-15T02:27:30;93874.81;;;10.04;36.56
22257;BME280;11297;42.686;23.374;2023-03-15T02:29:56;93868.13;;;10.03;35.86
22257;BME280;11297;42.686;23.374;2023-03-15T02:32:22;93868.47;;;10.02;36.11
22257;BME280;11297;42.686;23.374;2023-03-15T02:34:47;93868.88;;;10.03;36.19
22257;BME280;11297;42.686;23.374;2023-03-15T02:37:13;93869.31;;;10.05;35.62
22257;BME280;11297;42.686;23.374;2023-03-15T02:39:38;93870.63;;;10.11;36.04
22257;BME280;11297;42.686;23.374;2023-03-15T02:42:03;93872.13;;;10.12;35.90
22257;BME280;11297;42.686;23.374;2023-03-15T02:44:34;93868.66;;;10.08;35.71
22257;BME280;11297;42.686;23.374;2023-03-15T02:47:08;93857.59;;;9.88;35.69
22257;BME280;11297;42.686;23.374;2023-03-15T02:49:41;93871.25;;;9.97;36.43
22257;BME280;11297;42.686;23.374;2023-03-15T02:52:08;93877.97;;;9.98;35.75
22257;BME280;11297;42.686;23.374;2023-03-15T02:54:34;93866.75;;;9.73;36.12
22257;BME280;11297;42.686;23.374;2023-03-15T02:57:00;93866.44;;;9.75;36.30
22257;BME280;11297;42.686;23.374;2023-03-15T02:59:26;93864.25;;;9.65;36.64
22257;BME280;11297;42.686;23.374;2023-03-15T03:01:51;93864.66;;;9.55;36.79
22257;BME280;11297;42.686;23.374;2023-03-15T03:04:17;93855.16;;;9.27;37.00
22257;BME280;11297;42.686;23.374;2023-03-15T03:06:43;93832.66;;;9.07;37.91
22257;BME280;11297;42.686;23.374;2023-03-15T03:09:09;93849.88;;;9.23;37.46
22257;BME280;11297;42.686;23.374;2023-03-15T03:11:35;93854.44;;;9.06;38.16
22257;BME280;11297;42.686;23.374;2023-03-15T03:14:01;93857.84;;;9.18;37.72
22257;BME280;11297;42.686;23.374;2023-03-15T03:16:26;93850.06;;;9.18;37.78
22257;BME280;11297;42.686;23.374;2023-03-15T03:18:51;93828.69;;;8.89;37.82
22257;BME280;11297;42.686;23.374;2023-03-15T03:21:17;93835.44;;;9.02;37.87
22257;BME280;11297;42.686;23.374;2023-03-15T03:23:42;93831.03;;;8.62;39.01
22257;BME280;11297;42.686;23.374;2023-03-15T03:26:15;93838.47;;;8.84;39.24
22257;BME280;11297;42.686;23.374;2023-03-15T03:28:42;93819.47;;;8.80;38.34
22257;BME280;11297;42.686;23.374;2023-03-15T03:31:19;93836.75;;;8.88;38.79
22257;BME280;11297;42.686;23.374;2023-03-15T03:33:45;93827.94;;;8.89;39.19
22257;BME280;11297;42.686;23.374;2023-03-15T03:36:10;93829.13;;;8.91;39.30
22257;BME280;11297;42.686;23.374;2023-03-15T03:38:39;93825.13;;;8.94;38.83
22257;BME280;11297;42.686;23.374;2023-03-15T03:41:05;93820.38;;;8.96;39.41
22257;BME280;11297;42.686;23.374;2023-03-15T03:43:31;93814.03;;;8.93;39.40
22257;BME280;11297;42.686;23.374;2023-03-15T03:45:56;93816.03;;;9.08;38.80
22257;BME280;11297;42.686;23.374;2023-03-15T03:48:22;93821.31;;;9.11;39.42
22257;BME280;11297;42.686;23.374;2023-03-15T03:50:47;93815.25;;;9.07;39.58
22257;BME280;11297;42.686;23.374;2023-03-15T03:53:13;93812.91;;;9.14;39.39
22257;BME280;11297;42.686;23.374;2023-03-15T03:55:38;93799.50;;;9.01;39.08
22257;BME280;11297;42.686;23.374;2023-03-15T03:58:03;93811.44;;;8.93;39.34
22257;BME280;11297;42.686;23.374;2023-03-15T04:00:29;93814.03;;;8.73;39.63
22257;BME280;11297;42.686;23.374;2023-03-15T04:02:54;93815.88;;;8.72;40.46
22257;BME280;11297;42.686;23.374;2023-03-15T04:05:20;93811.75;;;8.71;40.46
22257;BME280;11297;42.686;23.374;2023-03-15T04:07:45;93810.94;;;8.79;40.51
22257;BME280;11297;42.686;23.374;2023-03-15T04:10:11;93796.34;;;8.75;40.19
22257;BME280;11297;42.686;23.374;2023-03-15T04:12:42;93803.94;;;8.80;40.56
22257;BME280;11297;42.686;23.374;2023-03-15T04:15:09;93802.94;;;8.72;40.53
22257;BME280;11297;42.686;23.374;2023-03-15T04:17:36;93805.53;;;8.72;40.76
22257;BME280;11297;42.686;23.374;2023-03-15T04:20:02;93792.00;;;8.67;40.84
22257;BME280;11297;42.686;23.374;2023-03-15T04:22:29;93791.13;;;8.63;41.40
22257;BME280;11297;42.686;23.374;2023-03-15T04:24:55;93797.38;;;8.62;40.94
22257;BME280;11297;42.686;23.374;2023-03-15T04:27:20;93777.00;;;8.40;41.38
22257;BME280;11297;42.686;23.374;2023-03-15T04:29:45;93787.34;;;8.60;41.30
22257;BME280;11297;42.686;23.374;2023-03-15T04:32:11;93787.91;;;8.66;40.94
22257;BME280;11297;42.686;23.374;2023-03-15T04:34:37;93787.91;;;8.66;40.82
22257;BME280;11297;42.686;23.374;2023-03-15T04:37:04;93787.31;;;8.81;40.51
22257;BME280;11297;42.686;23.374;2023-03-15T04:39:30;93793.19;;;8.90;40.91
22257;BME280;11297;42.686;23.374;2023-03-15T04:41:55;93778.84;;;8.92;40.28
22257;BME280;11297;42.686;23.374;2023-03-15T04:44:21;93779.28;;;8.94;40.54
22257;BME280;11297;42.686;23.374;2023-03-15T04:46:50;93784.38;;;9.03;40.67
22257;BME280;11297;42.686;23.374;2023-03-15T04:49:16;93795.44;;;9.11;40.33
22257;BME280;11297;42.686;23.374;2023-03-15T04:51:41;93795.69;;;9.18;40.82
22257;BME280;11297;42.686;23.374;2023-03-15T04:54:07;93791.03;;;9.24;40.21
22257;BME280;11297;42.686;23.374;2023-03-15T04:56:32;93793.97;;;9.34;40.38
22257;BME280;11297;42.686;23.374;2023-03-15T04:58:57;93788.47;;;9.36;40.36
22257;BME280;11297;42.686;23.374;2023-03-15T05:01:28;93799.56;;;11.60;84.62
22257;BME280;11297;42.686;23.374;2023-03-15T05:03:54;93792.81;;;12.51;78.17
22257;BME280;11297;42.686;23.374;2023-03-15T05:06:19;93775.91;;;11.96;45.43
22257;BME280;11297;42.686;23.374;2023-03-15T05:08:45;93779.09;;;11.59;39.21
22257;BME280;11297;42.686;23.374;2023-03-15T05:11:11;93790.41;;;11.51;38.24
22257;BME280;11297;42.686;23.374;2023-03-15T05:13:36;93798.16;;;11.08;38.22
22257;BME280;11297;42.686;23.374;2023-03-15T05:16:02;93779.50;;;10.64;38.86
22257;BME280;11297;42.686;23.374;2023-03-15T05:18:28;93793.47;;;10.48;39.49
22257;BME280;11297;42.686;23.374;2023-03-15T05:20:53;93784.13;;;10.19;39.78
22257;BME280;11297;42.686;23.374;2023-03-15T05:23:20;93790.19;;;10.23;40.00
22257;BME280;11297;42.686;23.374;2023-03-15T05:25:52;93788.88;;;10.05;40.25
22257;BME280;11297;42.686;23.374;2023-03-15T05:28:22;93764.22;;;9.88;39.01
22257;BME280;11297;42.686;23.374;2023-03-15T05:30:48;93801.84;;;10.17;39.62
22257;BME280;11297;42.686;23.374;2023-03-15T05:33:14;93790.97;;;10.00;39.24
22257;BME280;11297;42.686;23.374;2023-03-15T05:35:39;93776.78;;;9.98;38.74
22257;BME280;11297;42.686;23.374;2023-03-15T05:38:05;93783.59;;;10.02;38.39
22257;BME280;11297;42.686;23.374;2023-03-15T05:40:31;93783.06;;;9.97;38.00
22257;BME280;11297;42.686;23.374;2023-03-15T05:42:57;93770.94;;;9.89;38.02
22257;BME280;11297;42.686;23.374;2023-03-15T05:45:23;93797.13;;;12.29;73.81
22257;BME280;11297;42.686;23.374;2023-03-15T05:47:48;93793.38;;;13.77;76.44
22257;BME280;11297;42.686;23.374;2023-03-15T05:50:14;93781.31;;;15.23;71.29
22257;BME280;11297;42.686;23.374;2023-03-15T05:52:39;93775.50;;;15.76;60.47
22257;BME280;11297;42.686;23.374;2023-03-15T05:55:05;93760.41;;;15.59;34.95
22257;BME280;11297;42.686;23.374;2023-03-15T05:57:30;93762.34;;;15.00;32.99
22257;BME280;11297;42.686;23.374;2023-03-15T05:59:56;93767.47;;;14.61;32.60
22257;BME280;11297;42.686;23.374;2023-03-15T06:02:21;93774.75;;;14.00;33.30
22257;BME280;11297;42.686;23.374;2023-03-15T06:04:47;93779.59;;;13.54;33.29
22257;BME280;11297;42.686;23.374;2023-03-15T06:07:12;93779.69;;;13.20;33.75
22257;BME280;11297;42.686;23.374;2023-03-15T06:09:37;93773.41;;;13.02;34.34
22257;BME280;11297;42.686;23.374;2023-03-15T06:12:03;93777.56;;;12.88;34.50
22257;BME280;11297;42.686;23.374;2023-03-15T06:14:29;93775.72;;;12.54;35.24
22257;BME280;11297;42.686;23.374;2023-03-15T06:16:54;93758.72;;;12.26;36.31
22257;BME280;11297;42.686;23.374;2023-03-15T06:19:20;93773.44;;;12.34;36.65
22257;BME280;11297;42.686;23.374;2023-03-15T06:21:46;93763.59;;;12.27;36.77
22257;BME280;11297;42.686;23.374;2023-03-15T06:24:11;93769.41;;;12.55;36.98
22257;BME280;11297;42.686;23.374;2023-03-15T06:26:37;93774.34;;;12.60;36.28
22257;BME280;11297;42.686;23.374;2023-03-15T06:29:02;93782.72;;;12.50;36.68
22257;BME280;11297;42.686;23.374;2023-03-15T06:31:28;93777.16;;;12.86;36.74
22257;BME280;11297;42.686;23.374;2023-03-15T06:33:53;93765.38;;;12.91;36.28
22257;BME280;11297;42.686;23.374;2023-03-15T06:36:19;93748.56;;;13.08;36.96
22257;BME280;11297;42.686;23.374;2023-03-15T06:38:44;93754.56;;;13.12;36.07
22257;BME280;11297;42.686;23.374;2023-03-15T06:41:10;93758.25;;;13.30;35.84
22257;BME280;11297;42.686;23.374;2023-03-15T06:43:37;93771.97;;;13.45;35.29
22257;BME280;11297;42.686;23.374;2023-03-15T06:46:02;93762.53;;;13.38;35.47
22257;BME280;11297;42.686;23.374;2023-03-15T06:48:28;93761.63;;;13.30;35.33
22257;BME280;11297;42.686;23.374;2023-03-15T06:50:53;93750.31;;;13.23;35.74
22257;BME280;11297;42.686;23.374;2023-03-15T06:53:19;93762.25;;;13.65;35.46
22257;BME280;11297;42.686;23.374;2023-03-15T06:55:45;93767.81;;;13.85;34.74
22257;BME280;11297;42.686;23.374;2023-03-15T06:58:11;93760.44;;;14.13;34.72
22257;BME280;11297;42.686;23.374;2023-03-15T07:00:37;93768.81;;;14.51;33.93
22257;BME280;11297;42.686;23.374;2023-03-15T07:03:03;93745.66;;;14.79;33.82
22257;BME280;11297;42.686;23.374;2023-03-15T07:05:28;93755.44;;;14.85;33.16
22257;BME280;11297;42.686;23.374;2023-03-15T07:07:54;93749.34;;;14.75;33.03
22257;BME280;11297;42.686;23.374;2023-03-15T07:10:19;93758.59;;;14.69;32.87
22257;BME280;11297;42.686;23.374;2023-03-15T07:12:45;93753.28;;;14.91;32.76
22257;BME280;11297;42.686;23.374;2023-03-15T07:15:11;93740.91;;;15.17;32.20
22257;BME280;11297;42.686;23.374;2023-03-15T07:17:37;93748.25;;;15.41;32.35
22257;BME280;11297;42.686;23.374;2023-03-15T07:20:02;93731.06;;;15.40;32.60
22257;BME280;11297;42.686;23.374;2023-03-15T07:22:30;93735.69;;;15.57;32.83
22257;BME280;11297;42.686;23.374;2023-03-15T07:24:56;93750.13;;;15.44;32.67
22257;BME280;11297;42.686;23.374;2023-03-15T07:27:21;93742.50;;;15.65;32.84
22257;BME280;11297;42.686;23.374;2023-03-15T07:29:47;93742.91;;;15.67;31.96
22257;BME280;11297;42.686;23.374;2023-03-15T07:32:12;93733.06;;;15.53;32.09
22257;BME280;11297;42.686;23.374;2023-03-15T07:34:38;93738.88;;;15.79;31.76
22257;BME280;11297;42.686;23.374;2023-03-15T07:37:03;93727.31;;;15.41;32.08
22257;BME280;11297;42.686;23.374;2023-03-15T07:39:29;93725.03;;;15.36;32.57
22257;BME280;11297;42.686;23.374;2023-03-15T07:41:57;93709.31;;;15.03;33.02
22257;BME280;11297;42.686;23.374;2023-03-15T07:44:24;93732.41;;;15.27;33.95
22257;BME280;11297;42.686;23.374;2023-03-15T07:46:49;93742.06;;;16.02;32.43
22257;BME280;11297;42.686;23.374;2023-03-15T07:49:15;93733.59;;;16.79;31.40
22257;BME280;11297;42.686;23.374;2023-03-15T07:51:40;93738.88;;;16.93;31.09
22257;BME280;11297;42.686;23.374;2023-03-15T07:54:06;93730.22;;;16.86;30.68
22257;BME280;11297;42.686;23.374;2023-03-15T07:56:32;93728.03;;;16.95;30.48
22257;BME280;11297;42.686;23.374;2023-03-15T07:58:57;93732.88;;;16.89;31.24
22257;BME280;11297;42.686;23.374;2023-03-15T08:01:23;93733.59;;;16.86;30.67
22257;BME280;11297;42.686;23.374;2023-03-15T08:03:48;93732.56;;;17.08;30.43
22257;BME280;11297;42.686;23.374;2023-03-15T08:06:13;93720.75;;;16.61;31.06
22257;BME280;11297;42.686;23.374;2023-03-15T08:08:39;93709.16;;;16.62;31.15
22257;BME280;11297;42.686;23.374;2023-03-15T08:11:04;93703.19;;;16.68;30.95
22257;BME280;11297;42.686;23.374;2023-03-15T08:13:30;93705.06;;;16.74;30.77
22257;BME280;11297;42.686;23.374;2023-03-15T08:15:55;93712.97;;;16.78;30.97
22257;BME280;11297;42.686;23.374;2023-03-15T08:18:21;93704.78;;;16.93;30.15
22257;BME280;11297;42.686;23.374;2023-03-15T08:20:46;93697.69;;;17.04;29.89
22257;BME280;11297;42.686;23.374;2023-03-15T08:23:11;93692.47;;;17.11;30.42
22257;BME280;11297;42.686;23.374;2023-03-15T08:25:41;93681.69;;;17.44;29.85
22257;BME280;11297;42.686;23.374;2023-03-15T08:28:07;93688.47;;;17.79;29.94
22257;BME280;11297;42.686;23.374;2023-03-15T08:30:33;93689.97;;;17.94;29.37
22257;BME280;11297;42.686;23.374;2023-03-15T08:32:58;93688.84;;;17.78;29.55
22257;BME280;11297;42.686;23.374;2023-03-15T08:35:24;93692.22;;;18.23;29.14
22257;BME280;11297;42.686;23.374;2023-03-15T08:37:50;93692.56;;;18.29;28.72
22257;BME280;11297;42.686;23.374;2023-03-15T08:40:18;93706.09;;;18.03;29.76
22257;BME280;11297;42.686;23.374;2023-03-15T08:42:51;93695.97;;;18.29;29.03
22257;BME280;11297;42.686;23.374;2023-03-15T08:45:17;93688.84;;;18.16;28.95
22257;BME280;11297;42.686;23.374;2023-03-15T08:47:43;93683.13;;;18.56;28.48
22257;BME280;11297;42.686;23.374;2023-03-15T08:50:11;93691.66;;;18.84;28.06
22257;BME280;11297;42.686;23.374;2023-03-15T08:52:38;93693.88;;;18.99;27.60
22257;BME280;11297;42.686;23.374;2023-03-15T08:55:04;93678.53;;;18.73;27.98
22257;BME280;11297;42.686;23.374;2023-03-15T08:57:30;93691.03;;;18.59;27.96
22257;BME280;11297;42.686;23.374;2023-03-15T08:59:58;93691.44;;;18.40;28.23
22257;BME280;11297;42.686;23.374;2023-03-15T09:02:24;93697.47;;;18.27;28.65
22257;BME280;11297;42.686;23.374;2023-03-15T09:04:49;93698.59;;;17.84;28.95
22257;BME280;11297;42.686;23.374;2023-03-15T09:07:15;93700.84;;;17.93;28.75
22257;BME280;11297;42.686;23.374;2023-03-15T09:09:41;93681.34;;;17.73;28.44
22257;BME280;11297;42.686;23.374;2023-03-15T09:12:06;93701.59;;;17.72;28.71
22257;BME280;11297;42.686;23.374;2023-03-15T09:14:32;93699.72;;;17.76;29.18
22257;BME280;11297;42.686;23.374;2023-03-15T09:16:57;93687.69;;;17.75;29.01
22257;BME280;11297;42.686;23.374;2023-03-15T09:19:23;93684.69;;;17.46;29.12
22257;BME280;11297;42.686;23.374;2023-03-15T09:21:48;93694.06;;;17.40;29.50
22257;BME280;11297;42.686;23.374;2023-03-15T09:24:13;93701.91;;;17.29;29.58
22257;BME280;11297;42.686;23.374;2023-03-15T09:26:39;93702.56;;;17.02;30.01
22257;BME280;11297;42.686;23.374;2023-03-15T09:29:05;93690.44;;;16.63;30.40
22257;BME280;11297;42.686;23.374;2023-03-15T09:31:32;93694.84;;;16.52;30.50
22257;BME280;11297;42.686;23.374;2023-03-15T09:33:57;93681.84;;;16.09;31.19
22257;BME280;11297;42.686;23.374;2023-03-15T09:36:23;93690.72;;;15.94;31.56
22257;BME280;11297;42.686;23.374;2023-03-15T09:38:49;93680.19;;;15.84;31.68
22257;BME280;11297;42.686;23.374;2023-03-15T09:41:19;93659.22;;;15.80;31.63
22257;BME280;11297;42.686;23.374;2023-03-15T09:44:13;93654.91;;;16.09;30.92
22257;BME280;11297;42.686;23.374;2023-03-15T09:46:56;93674.59;;;16.46;30.92
22257;BME280;11297;42.686;23.374;2023-03-15T09:57:37;93668.53;;;16.28;31.34
22257;BME280;11297;42.686;23.374;2023-03-15T10:00:05;93655.69;;;16.16;31.58
22257;BME280;11297;42.686;23.374;2023-03-15T10:02:41;93670.34;;;16.24;31.58
22257;BME280;11297;42.686;23.374;2023-03-15T10:05:15;93662.50;;;16.24;31.67
22257;BME280;11297;42.686;23.374;2023-03-15T10:07:43;93672.66;;;16.29;31.61
22257;BME280;11297;42.686;23.374;2023-03-15T10:10:17;93674.88;;;16.27;31.46
22257;BME280;11297;42.686;23.374;2023-03-15T10:12:50;93563.28;;;15.52;31.30
22257;BME280;11297;42.686;23.374;2023-03-15T10:15:29;93664.78;;;16.29;31.35
22257;BME280;11297;42.686;23.374;2023-03-15T10:18:13;93667.56;;;15.96;31.68
22257;BME280;11297;42.686;23.374;2023-03-15T10:20:47;93659.84;;;15.64;32.22
22257;BME280;11297;42.686;23.374;2023-03-15T10:26:36;93665.38;;;16.09;31.98
22257;BME280;11297;42.686;23.374;2023-03-15T10:29:11;93663.19;;;16.18;32.02
22257;BME280;11297;42.686;23.374;2023-03-15T10:31:40;93657.97;;;16.21;31.21
22257;BME280;11297;42.686;23.374;2023-03-15T10:34:08;93648.66;;;16.24;31.43
22257;BME280;11297;42.686;23.374;2023-03-15T10:36:33;93631.75;;;16.21;31.01
22257;BME280;11297;42.686;23.374;2023-03-15T10:38:59;93644.13;;;16.21;31.07
22257;BME280;11297;42.686;23.374;2023-03-15T10:41:38;93657.69;;;16.33;31.38
22257;BME280;11297;42.686;23.374;2023-03-15T10:44:15;93659.50;;;16.22;31.27
22257;BME280;11297;42.686;23.374;2023-03-15T10:46:41;93659.50;;;16.26;31.41
22257;BME280;11297;42.686;23.374;2023-03-15T10:51:43;93646.78;;;16.24;31.37
22257;BME280;11297;42.686;23.374;2023-03-15T10:54:17;93657.47;;;16.69;54.19
22257;BME280;11297;42.686;23.374;2023-03-15T10:59:22;93628.75;;;16.16;31.60
22257;BME280;11297;42.686;23.374;2023-03-15T11:01:51;93659.91;;;17.26;57.55
22257;BME280;11297;42.686;23.374;2023-03-15T11:04:24;93671.09;;;18.65;52.47
22257;BME280;11297;42.686;23.374;2023-03-15T11:06:59;93666.31;;;19.24;52.97
22257;BME280;11297;42.686;23.374;2023-03-15T11:09:37;93653.47;;;19.84;46.76
22257;BME280;11297;42.686;23.374;2023-03-15T11:12:05;93650.56;;;20.52;45.68
22257;BME280;11297;42.686;23.374;2023-03-15T11:14:43;93647.34;;;20.74;42.97
22257;BME280;11297;42.686;23.374;2023-03-15T11:17:24;93640.66;;;20.96;36.57
22257;BME280;11297;42.686;23.374;2023-03-15T11:19:57;93631.63;;;20.93;34.87
22257;BME280;11297;42.686;23.374;2023-03-15T11:22:24;93637.19;;;21.28;37.53
22257;BME280;11297;42.686;23.374;2023-03-15T11:24:51;93638.78;;;21.52;38.74
22257;BME280;11297;42.686;23.374;2023-03-15T11:27:21;93634.06;;;21.86;37.40
22257;BME280;11297;42.686;23.374;2023-03-15T11:29:49;93631.78;;;21.88;34.36
22257;BME280;11297;42.686;23.374;2023-03-15T11:32:22;93642.13;;;22.02;31.69
22257;BME280;11297;42.686;23.374;2023-03-15T11:35:02;93639.81;;;22.04;34.36
22257;BME280;11297;42.686;23.374;2023-03-15T11:37:44;93631.94;;;22.23;35.36
22257;BME280;11297;42.686;23.374;2023-03-15T11:42:49;93622.53;;;22.22;33.37
22257;BME280;11297;42.686;23.374;2023-03-15T11:45:28;93624.81;;;21.74;27.24
22257;BME280;11297;42.686;23.374;2023-03-15T11:48:00;93632.13;;;21.67;35.19
22257;BME280;11297;42.686;23.374;2023-03-15T11:50:28;93629.41;;;21.70;34.84
22257;BME280;11297;42.686;23.374;2023-03-15T11:52:54;93619.53;;;21.97;34.78
22257;BME280;11297;42.686;23.374;2023-03-15T11:55:25;93615.78;;;22.17;34.06
22257;BME280;11297;42.686;23.374;2023-03-15T11:57:52;93618.59;;;22.30;33.82
22257;BME280;11297;42.686;23.374;2023-03-15T12:00:36;93617.81;;;22.52;31.28
22257;BME280;11297;42.686;23.374;2023-03-15T12:11:36;93598.56;;;22.29;32.54
22257;BME280;11297;42.686;23.374;2023-03-15T12:14:04;93601.03;;;22.39;31.67
22257;BME280;11297;42.686;23.374;2023-03-15T12:16:36;93601.50;;;22.34;31.36
22257;BME280;11297;42.686;23.374;2023-03-15T12:19:17;93601.63;;;22.27;35.29
22257;BME280;11297;42.686;23.374;2023-03-15T12:21:55;93593.47;;;22.38;33.70
22257;BME280;11297;42.686;23.374;2023-03-15T12:24:27;93585.91;;;22.40;32.54
22257;BME280;11297;42.686;23.374;2023-03-15T12:27:05;93593.50;;;22.15;32.80
22257;BME280;11297;42.686;23.374;2023-03-15T12:29:39;93597.59;;;22.19;28.48
22257;BME280;11297;42.686;23.374;2023-03-15T12:32:11;93583.44;;;22.07;29.78
22257;BME280;11297;42.686;23.374;2023-03-15T12:34:47;93586.97;;;22.00;31.35
22257;BME280;11297;42.686;23.374;2023-03-15T12:37:42;93586.81;;;21.88;33.04
22257;BME280;11297;42.686;23.374;2023-03-15T12:53:03;93568.53;;;21.51;33.43
22257;BME280;11297;42.686;23.374;2023-03-15T12:55:33;93582.06;;;21.57;33.27
22257;BME280;11297;42.686;23.374;2023-03-15T12:58:00;93578.66;;;21.56;32.99
22257;BME280;11297;42.686;23.374;2023-03-15T13:00:31;93561.94;;;21.62;30.13
22257;BME280;11297;42.686;23.374;2023-03-15T13:03:06;93577.31;;;21.18;28.17
22257;BME280;11297;42.686;23.374;2023-03-15T13:05:35;93572.53;;;21.10;29.52
22257;BME280;11297;42.686;23.374;2023-03-15T13:19:52;93570.66;;;19.38;31.42
22257;BME280;11297;42.686;23.374;2023-03-15T13:22:40;93567.22;;;19.44;32.10
22257;BME280;11297;42.686;23.374;2023-03-15T13:28:18;93574.25;;;19.07;31.91
22257;BME280;11297;42.686;23.374;2023-03-15T13:30:48;93589.81;;;18.77;31.92
22257;BME280;11297;42.686;23.374;2023-03-15T13:35:52;93587.47;;;17.87;32.98
22257;BME280;11297;42.686;23.374;2023-03-15T13:40:57;93591.28;;;17.31;34.03
22257;BME280;11297;42.686;23.374;2023-03-15T13:43:31;93590.47;;;17.13;34.14
22257;BME280;11297;42.686;23.374;2023-03-15T13:45:58;93569.44;;;16.78;34.06
22257;BME280;11297;42.686;23.374;2023-03-15T13:48:39;93560.78;;;16.54;34.62
22257;BME280;11297;42.686;23.374;2023-03-15T13:51:06;93592.16;;;16.29;35.27
22257;BME280;11297;42.686;23.374;2023-03-15T13:53:34;93564.09;;;16.33;34.96
22257;BME280;11297;42.686;23.374;2023-03-15T13:56:01;93571.94;;;16.30;34.89
22257;BME280;11297;42.686;23.374;2023-03-15T13:58:30;93584.66;;;16.28;34.59
22257;BME280;11297;42.686;23.374;2023-03-15T14:00:58;93598.00;;;16.09;35.05